createdAt,value
2022-09-15T00:02:01.663Z,51.00
2022-09-15T00:04:03.655Z,50.69
2022-09-15T00:06:05.776Z,51.04
2022-09-15T00:08:07.477Z,50.79
2022-09-15T00:10:09.792Z,50.63
2022-09-15T00:12:11.448Z,50.52
2022-09-15T00:14:13.178Z,50.66
2022-09-15T00:16:15.548Z,50.31
2022-09-15T00:18:17.403Z,50.36
2022-09-15T00:20:20.424Z,50.04
2022-09-15T00:22:22.072Z,50.00
2022-09-15T00:24:23.810Z,50.35
2022-09-15T00:26:26.584Z,50.52
2022-09-15T00:28:28.296Z,51.01
2022-09-15T00:30:30.090Z,50.46
2022-09-15T00:32:31.933Z,51.00
2022-09-15T00:34:33.717Z,50.89
2022-09-15T00:36:35.397Z,50.80
2022-09-15T00:38:37.389Z,50.91
2022-09-15T00:40:49.717Z,50.82
2022-09-15T00:42:51.425Z,50.97
2022-09-15T00:45:01.028Z,50.89
2022-09-15T00:47:18.669Z,50.74
2022-09-15T00:49:24.183Z,51.08
2022-09-15T00:51:46.792Z,51.30
2022-09-15T00:53:48.636Z,50.86
2022-09-15T00:55:50.706Z,51.02
2022-09-15T00:58:04.330Z,51.15
2022-09-15T01:00:09.360Z,50.74
2022-09-15T01:02:18.408Z,50.61
2022-09-15T01:04:20.161Z,50.85
2022-09-15T01:06:34.491Z,50.30
2022-09-15T01:09:03.182Z,50.60
2022-09-15T01:11:05.028Z,50.64
2022-09-15T01:13:11.400Z,50.56
2022-09-15T01:15:13.147Z,50.56
2022-09-15T01:17:20.038Z,50.73
2022-09-15T01:19:39.960Z,50.54
2022-09-15T01:21:44.231Z,50.18
2022-09-15T01:24:25.266Z,50.85
2022-09-15T01:26:41.994Z,50.48
2022-09-15T01:29:04.732Z,50.76
2022-09-15T01:31:32.407Z,50.73
2022-09-15T01:34:07.644Z,50.61
2022-09-15T01:36:19.529Z,50.63
2022-09-15T01:38:38.821Z,50.83
2022-09-15T01:40:48.342Z,50.80
2022-09-15T01:42:50.266Z,50.90
2022-09-15T01:45:19.315Z,50.63
2022-09-15T01:47:21.086Z,50.38
2022-09-15T01:49:27.348Z,50.57
2022-09-15T01:51:29.019Z,50.47
2022-09-15T01:53:30.744Z,50.92
2022-09-15T01:55:52.498Z,51.04
2022-09-15T01:57:54.197Z,50.86
2022-09-15T01:59:56.279Z,50.97
2022-09-15T02:02:16.227Z,50.49
2022-09-15T02:04:23.789Z,50.78
2022-09-15T02:06:38.920Z,50.56
2022-09-15T02:08:59.656Z,50.60
2022-09-15T02:11:14.391Z,50.67
2022-09-15T02:13:22.879Z,50.65
2022-09-15T02:15:33.766Z,50.80
2022-09-15T02:17:37.606Z,50.85
2022-09-15T02:19:39.492Z,50.58
2022-09-15T02:22:10.406Z,50.58
2022-09-15T02:24:15.227Z,51.03
2022-09-15T02:26:19.576Z,50.56
2022-09-15T02:28:21.553Z,50.87
2022-09-15T02:30:23.238Z,50.60
2022-09-15T02:32:25.335Z,50.63
2022-09-15T02:34:31.914Z,50.82
2022-09-15T02:36:33.597Z,50.85
2022-09-15T02:38:37.346Z,51.14
2022-09-15T02:40:43.134Z,51.11
2022-09-15T02:42:58.413Z,50.81
2022-09-15T02:45:00.623Z,50.58
2022-09-15T02:47:02.427Z,50.71
2022-09-15T02:49:04.157Z,51.00
2022-09-15T02:51:06.014Z,51.18
2022-09-15T02:53:07.782Z,51.42
2022-09-15T02:55:09.864Z,51.16
2022-09-15T02:57:11.523Z,51.05
2022-09-15T02:59:13.760Z,51.15
2022-09-15T03:01:15.920Z,50.84
2022-09-15T03:03:17.717Z,50.98
2022-09-15T03:05:26.623Z,50.75
2022-09-15T03:07:28.273Z,50.66
2022-09-15T03:09:29.989Z,50.62
2022-09-15T03:11:31.749Z,50.53
2022-09-15T03:13:33.455Z,50.70
2022-09-15T03:15:35.165Z,50.88
2022-09-15T03:17:37.851Z,50.92
2022-09-15T03:19:39.605Z,50.86
2022-09-15T03:21:41.315Z,51.34
2022-09-15T03:23:43.071Z,51.40
2022-09-15T03:25:45.838Z,51.30
2022-09-15T03:27:47.539Z,51.18
2022-09-15T03:29:49.673Z,51.28
2022-09-15T03:31:51.470Z,51.48
2022-09-15T03:33:53.286Z,51.35
2022-09-15T03:35:55.005Z,51.55
2022-09-15T03:37:56.732Z,51.04
2022-09-15T03:39:58.560Z,51.56
2022-09-15T03:42:00.366Z,51.48
2022-09-15T03:44:02.315Z,51.25
2022-09-15T03:46:05.079Z,51.33
2022-09-15T03:48:06.922Z,51.68
2022-09-15T03:50:09.025Z,51.50
2022-09-15T03:52:10.724Z,51.33
2022-09-15T03:54:12.463Z,51.48
2022-09-15T03:56:24.664Z,51.23
2022-09-15T03:58:30.514Z,51.46
2022-09-15T04:00:32.564Z,52.00
2022-09-15T04:02:34.343Z,51.87
2022-09-15T04:04:35.966Z,51.79
2022-09-15T04:06:37.751Z,51.96
2022-09-15T04:08:39.627Z,51.88
2022-09-15T04:10:41.386Z,51.73
2022-09-15T04:12:43.199Z,52.04
2022-09-15T04:14:44.968Z,51.42
2022-09-15T04:16:46.735Z,51.77
2022-09-15T04:18:48.692Z,51.58
2022-09-15T04:20:50.359Z,52.01
2022-09-15T04:22:52.040Z,51.97
2022-09-15T04:25:00.206Z,52.10
2022-09-15T04:27:01.993Z,51.96
2022-09-15T04:29:05.071Z,52.16
2022-09-15T04:31:11.431Z,52.31
2022-09-15T04:33:13.246Z,52.04
2022-09-15T04:35:15.071Z,52.55
2022-09-15T04:37:16.758Z,52.52
2022-09-15T04:39:18.416Z,52.86
2022-09-15T04:41:20.209Z,52.96
2022-09-15T04:43:22.468Z,52.71
2022-09-15T04:45:24.136Z,52.84
2022-09-15T04:47:25.767Z,52.65
2022-09-15T04:49:27.441Z,52.58
2022-09-15T04:51:29.255Z,52.75
2022-09-15T04:53:30.985Z,52.55
2022-09-15T04:55:33.697Z,52.78
2022-09-15T04:57:35.346Z,52.63
2022-09-15T04:59:37.027Z,52.49
2022-09-15T05:01:38.749Z,52.38
2022-09-15T05:03:40.626Z,52.38
2022-09-15T05:05:42.324Z,52.59
2022-09-15T05:07:44.051Z,52.49
2022-09-15T05:09:45.774Z,52.26
2022-09-15T05:11:47.478Z,52.47
2022-09-15T05:13:49.171Z,52.40
2022-09-15T05:15:50.916Z,52.29
2022-09-15T05:17:52.675Z,52.15
2022-09-15T05:19:54.344Z,52.24
2022-09-15T05:21:55.992Z,52.32
2022-09-15T05:23:57.672Z,52.40
2022-09-15T05:26:00.744Z,52.45
2022-09-15T05:28:02.731Z,52.25
2022-09-15T05:30:34.860Z,52.30
2022-09-15T05:32:26.832Z,52.06
2022-09-15T05:34:28.533Z,52.21
2022-09-15T05:36:30.369Z,52.11
2022-09-15T05:38:32.189Z,52.13
2022-09-15T05:40:33.905Z,51.99
2022-09-15T05:42:35.715Z,52.17
2022-09-15T05:44:37.396Z,51.95
2022-09-15T05:46:39.132Z,51.93
2022-09-15T05:48:40.906Z,52.18
2022-09-15T05:50:48.867Z,51.93
2022-09-15T05:52:53.624Z,51.94
2022-09-15T05:54:59.012Z,52.30
2022-09-15T05:57:01.041Z,52.20
2022-09-15T05:59:02.742Z,52.12
2022-09-15T06:01:24.157Z,51.95
2022-09-15T06:03:30.625Z,52.00
2022-09-15T06:05:32.693Z,52.00
2022-09-15T06:07:34.370Z,51.92
2022-09-15T06:09:36.100Z,52.12
2022-09-15T06:11:37.725Z,52.17
2022-09-15T06:13:39.628Z,51.82
2022-09-15T06:15:41.509Z,52.11
2022-09-15T06:17:43.205Z,51.82
2022-09-15T06:19:44.914Z,52.20
2022-09-15T06:21:46.617Z,52.05
2022-09-15T06:23:55.139Z,51.76
2022-09-15T06:25:56.935Z,51.73
2022-09-15T06:27:58.629Z,52.11
2022-09-15T06:30:00.302Z,52.16
2022-09-15T06:32:02.374Z,51.81
2022-09-15T06:34:04.178Z,52.08
2022-09-15T06:36:06.179Z,51.75
2022-09-15T06:38:08.067Z,52.12
2022-09-15T06:40:10.291Z,52.19
2022-09-15T06:42:13.830Z,51.99
2022-09-15T06:44:15.773Z,51.93
2022-09-15T06:46:19.616Z,51.76
2022-09-15T06:48:24.708Z,51.93
2022-09-15T06:50:26.897Z,51.84
2022-09-15T06:52:28.565Z,51.90
2022-09-15T06:54:30.235Z,51.92
2022-09-15T06:56:35.871Z,51.92
2022-09-15T06:58:40.679Z,51.76
2022-09-15T07:00:42.713Z,52.02
2022-09-15T07:02:44.507Z,51.72
2022-09-15T07:04:46.277Z,51.87
2022-09-15T07:06:48.192Z,52.24
2022-09-15T07:08:50.144Z,52.12
2022-09-15T07:10:51.845Z,51.83
2022-09-15T07:12:53.593Z,51.93
2022-09-15T07:14:55.323Z,51.92
2022-09-15T07:16:57.022Z,52.20
2022-09-15T07:18:58.830Z,51.81
2022-09-15T07:21:02.516Z,51.86
2022-09-15T07:23:04.200Z,52.00
2022-09-15T07:25:06.429Z,52.03
2022-09-15T07:27:08.163Z,52.21
2022-09-15T07:29:09.963Z,52.26
2022-09-15T07:31:13.599Z,51.84
2022-09-15T07:33:15.317Z,52.24
2022-09-15T07:35:17.073Z,52.33
2022-09-15T07:37:20.052Z,52.19
2022-09-15T07:39:21.799Z,51.89
2022-09-15T07:41:25.191Z,52.03
2022-09-15T07:43:26.921Z,51.95
2022-09-15T07:45:28.674Z,52.07
2022-09-15T07:47:30.476Z,51.96
2022-09-15T07:49:32.172Z,52.14
2022-09-15T07:51:34.026Z,52.09
2022-09-15T07:53:35.682Z,52.03
2022-09-15T07:55:37.383Z,52.18
2022-09-15T07:57:39.099Z,52.35
2022-09-15T07:59:41.398Z,51.89
2022-09-15T08:01:43.198Z,51.89
2022-09-15T08:03:46.203Z,52.30
2022-09-15T08:05:47.934Z,51.97
2022-09-15T08:07:50.327Z,51.91
2022-09-15T08:09:52.002Z,51.93
2022-09-15T08:11:53.695Z,52.26
2022-09-15T08:13:55.371Z,52.34
2022-09-15T08:15:57.159Z,51.98
2022-09-15T08:17:59.321Z,52.24
2022-09-15T08:20:01.211Z,52.02
2022-09-15T08:22:02.928Z,52.11
2022-09-15T08:24:04.752Z,52.21
2022-09-15T08:26:10.639Z,52.27
2022-09-15T08:28:14.852Z,52.16
2022-09-15T08:30:16.588Z,52.05
2022-09-15T08:32:18.347Z,52.20
2022-09-15T08:34:19.988Z,52.49
2022-09-15T08:36:21.942Z,52.40
2022-09-15T08:38:23.602Z,52.00
2022-09-15T08:40:32.678Z,52.21
2022-09-15T08:42:34.678Z,52.44
2022-09-15T08:44:59.815Z,52.08
2022-09-15T08:47:18.011Z,52.39
2022-09-15T08:49:51.873Z,52.02
2022-09-15T08:51:54.484Z,52.50
2022-09-15T08:54:01.568Z,52.26
2022-09-15T08:56:08.235Z,52.04
2022-09-15T08:58:19.424Z,52.01
2022-09-15T09:00:21.265Z,52.50
2022-09-15T09:02:33.642Z,52.28
2022-09-15T09:04:43.945Z,52.45
2022-09-15T09:07:07.098Z,52.31
2022-09-15T09:09:20.990Z,52.56
2022-09-15T09:11:38.620Z,52.49
2022-09-15T09:14:04.039Z,52.32
2022-09-15T09:16:06.233Z,52.39
2022-09-15T09:18:49.208Z,52.21
2022-09-15T09:21:22.777Z,52.35
2022-09-15T09:23:26.508Z,52.09
2022-09-15T09:25:28.656Z,52.41
2022-09-15T09:27:33.021Z,52.67
2022-09-15T09:29:41.128Z,52.07
2022-09-15T09:31:43.298Z,52.54
2022-09-15T09:34:14.821Z,52.52
2022-09-15T09:36:16.587Z,52.28
2022-09-15T09:38:23.406Z,52.18
2022-09-15T09:40:25.108Z,52.22
2022-09-15T09:42:30.201Z,52.42
2022-09-15T09:44:32.218Z,52.63
2022-09-15T09:46:34.163Z,52.42
2022-09-15T09:48:36.388Z,52.48
2022-09-15T09:50:39.722Z,52.85
2022-09-15T09:52:41.522Z,52.23
2022-09-15T09:54:43.614Z,52.20
2022-09-15T09:56:46.226Z,52.17
2022-09-15T09:58:48.515Z,52.02
2022-09-15T10:00:51.136Z,52.17
2022-09-15T10:02:52.846Z,52.55
2022-09-15T10:05:04.403Z,52.61
2022-09-15T10:07:06.753Z,52.29
2022-09-15T10:09:13.433Z,52.49
2022-09-15T10:11:15.112Z,52.19
2022-09-15T10:13:16.780Z,52.17
2022-09-15T10:15:28.799Z,52.26
2022-09-15T10:17:36.190Z,52.43
2022-09-15T10:19:45.242Z,52.51
2022-09-15T10:21:47.558Z,52.57
2022-09-15T10:23:49.210Z,52.52
2022-09-15T10:25:59.712Z,52.47
2022-09-15T10:28:13.713Z,52.85
2022-09-15T10:30:15.347Z,52.40
2022-09-15T10:32:24.948Z,52.32
2022-09-15T10:34:30.778Z,52.44
2022-09-15T10:36:32.445Z,52.64
2022-09-15T10:38:53.839Z,52.64
2022-09-15T10:41:14.046Z,52.69
2022-09-15T10:43:25.203Z,52.49
2022-09-15T10:45:34.583Z,52.29
2022-09-15T10:47:50.332Z,52.30
2022-09-15T10:50:16.304Z,52.29
2022-09-15T10:52:40.599Z,52.27
2022-09-15T10:54:59.763Z,52.49
2022-09-15T10:57:11.537Z,52.17
2022-09-15T10:59:28.228Z,52.35
2022-09-15T11:01:29.916Z,52.51
2022-09-15T11:03:39.904Z,52.07
2022-09-15T11:05:49.432Z,52.43
2022-09-15T11:08:15.078Z,52.26
2022-09-15T11:10:29.923Z,52.10
2022-09-15T11:12:38.141Z,52.18
2022-09-15T11:15:03.895Z,52.06
2022-09-15T11:17:16.505Z,51.81
2022-09-15T11:19:20.912Z,52.24
2022-09-15T11:21:22.510Z,52.17
2022-09-15T11:23:38.192Z,52.16
2022-09-15T11:25:45.402Z,52.20
2022-09-15T11:27:54.494Z,51.84
2022-09-15T11:30:23.073Z,51.90
2022-09-15T11:32:26.662Z,52.14
2022-09-15T11:34:35.791Z,52.16
2022-09-15T11:36:51.402Z,52.46
2022-09-15T11:39:00.108Z,52.16
2022-09-15T11:41:20.414Z,52.04
2022-09-15T11:43:24.903Z,51.93
2022-09-15T11:45:27.432Z,52.10
2022-09-15T11:47:38.755Z,51.63
2022-09-15T11:49:57.276Z,51.73
2022-09-15T11:52:36.063Z,51.70
2022-09-15T11:54:43.180Z,51.76
2022-09-15T11:56:45.391Z,51.84
2022-09-15T11:59:15.130Z,51.84
2022-09-15T12:01:19.636Z,51.82
2022-09-15T12:03:49.357Z,51.70
2022-09-15T12:06:02.634Z,51.68
2022-09-15T12:08:15.310Z,51.81
2022-09-15T12:10:29.594Z,51.87
2022-09-15T12:12:31.496Z,51.45
2022-09-15T12:14:36.351Z,51.84
2022-09-15T12:16:38.053Z,51.51
2022-09-15T12:18:47.593Z,51.64
2022-09-15T12:20:53.841Z,51.71
2022-09-15T12:23:04.557Z,51.79
2022-09-15T12:25:15.212Z,51.89
2022-09-15T12:27:17.898Z,51.78
2022-09-15T12:29:22.545Z,51.92
2022-09-15T12:31:34.852Z,51.70
2022-09-15T12:33:43.066Z,51.58
2022-09-15T12:35:44.787Z,51.69
2022-09-15T12:37:47.402Z,51.75
2022-09-15T12:39:49.272Z,51.32
2022-09-15T12:41:53.468Z,51.40
2022-09-15T12:43:56.275Z,51.74
2022-09-15T12:45:59.773Z,51.54
2022-09-15T12:48:02.647Z,51.45
2022-09-15T12:50:25.704Z,51.51
2022-09-15T12:52:27.851Z,51.65
2022-09-15T12:54:30.862Z,51.49
2022-09-15T12:56:32.959Z,51.50
2022-09-15T12:58:47.445Z,51.37
2022-09-15T13:01:16.636Z,51.64
2022-09-15T13:03:49.237Z,51.79
2022-09-15T13:05:52.336Z,51.63
2022-09-15T13:07:55.835Z,51.75
2022-09-15T13:10:15.362Z,51.42
2022-09-15T13:12:17.509Z,51.67
2022-09-15T13:14:33.312Z,51.41
2022-09-15T13:16:56.214Z,51.58
2022-09-15T13:19:25.272Z,51.38
2022-09-15T13:21:27.015Z,51.79
2022-09-15T13:23:28.994Z,51.40
2022-09-15T13:25:30.754Z,51.65
2022-09-15T13:27:42.215Z,51.51
2022-09-15T13:29:50.944Z,51.21
2022-09-15T13:32:24.928Z,51.50
2022-09-15T13:39:46.267Z,51.75
2022-09-15T13:42:14.389Z,53.00
2022-09-15T13:44:50.407Z,51.64
2022-09-15T13:47:10.637Z,51.62
2022-09-15T13:49:30.711Z,51.79
2022-09-15T13:51:33.061Z,51.62
2022-09-15T13:53:48.771Z,51.61
2022-09-15T13:55:50.812Z,49.19
2022-09-15T14:00:26.649Z,47.25
2022-09-15T14:02:29.361Z,46.02
2022-09-15T14:04:31.722Z,45.29
2022-09-15T14:06:41.889Z,45.47
2022-09-15T14:08:45.989Z,44.51
2022-09-15T14:10:54.470Z,44.75
2022-09-15T14:13:01.471Z,44.18
2022-09-15T14:15:04.370Z,44.03
2022-09-15T14:17:06.203Z,44.10
2022-09-15T14:19:27.095Z,45.05
2022-09-15T14:21:32.610Z,46.22
2022-09-15T14:23:38.057Z,46.93
2022-09-15T14:25:40.888Z,47.32
2022-09-15T14:27:48.466Z,46.85
2022-09-15T14:29:51.461Z,48.03
2022-09-15T14:31:53.541Z,47.36
2022-09-15T14:33:56.018Z,45.78
2022-09-15T14:35:57.814Z,44.94
2022-09-15T14:37:59.803Z,44.42
2022-09-15T14:40:02.705Z,44.63
2022-09-15T14:42:23.022Z,44.41
2022-09-15T14:47:17.901Z,44.59
2022-09-15T14:49:19.650Z,43.66
2022-09-15T14:51:25.511Z,43.57
2022-09-15T14:53:27.575Z,43.53
2022-09-15T14:55:55.478Z,43.54
2022-09-15T14:58:01.807Z,43.60
2022-09-15T15:00:06.980Z,43.58
2022-09-15T15:02:19.006Z,43.21
2022-09-15T15:04:23.596Z,43.92
2022-09-15T15:06:35.426Z,43.34
2022-09-15T15:08:43.293Z,43.64
2022-09-15T15:10:45.949Z,43.39
2022-09-15T15:12:53.185Z,44.48
2022-09-15T15:14:55.504Z,47.56
2022-09-15T15:16:59.783Z,47.83
2022-09-15T15:19:01.820Z,47.25
2022-09-15T15:21:03.610Z,47.62
2022-09-15T15:23:25.657Z,46.79
2022-09-15T15:25:29.247Z,47.18
2022-09-15T15:27:34.034Z,46.98
2022-09-15T15:29:38.614Z,46.85
2022-09-15T15:31:40.460Z,46.73
2022-09-15T15:33:58.313Z,47.28
2022-09-15T15:36:05.660Z,47.08
2022-09-15T15:38:13.012Z,47.31
2022-09-15T15:40:18.730Z,47.26
2022-09-15T15:42:20.751Z,47.44
2022-09-15T15:44:25.151Z,47.25
2022-09-15T15:46:45.198Z,47.81
2022-09-15T15:48:47.137Z,47.28
2022-09-15T15:50:48.903Z,47.58
2022-09-15T15:52:50.956Z,48.43
2022-09-15T15:54:52.844Z,48.27
2022-09-15T15:56:54.614Z,48.35
2022-09-15T15:58:56.642Z,46.91
2022-09-15T16:00:58.414Z,45.97
2022-09-15T16:03:00.227Z,45.32
2022-09-15T16:05:02.800Z,45.79
2022-09-15T16:07:04.715Z,45.08
2022-09-15T16:09:06.400Z,44.81
2022-09-15T16:11:09.007Z,44.88
2022-09-15T16:13:13.939Z,44.07
2022-09-15T16:15:17.770Z,44.46
2022-09-15T16:17:19.420Z,43.32
2022-09-15T16:19:21.274Z,43.43
2022-09-15T16:21:33.961Z,43.34
2022-09-15T16:23:36.044Z,43.65
2022-09-15T16:26:07.563Z,42.72
2022-09-15T16:28:09.450Z,42.81
2022-09-15T16:30:11.505Z,43.22
2022-09-15T16:32:18.836Z,42.81
2022-09-15T16:34:20.772Z,42.95
2022-09-15T16:36:22.695Z,42.43
2022-09-15T16:38:25.211Z,42.28
2022-09-15T16:40:27.320Z,42.48
2022-09-15T16:42:29.039Z,42.52
2022-09-15T16:44:30.946Z,42.29
2022-09-15T16:46:32.816Z,43.15
2022-09-15T16:48:34.671Z,42.34
2022-09-15T16:50:39.881Z,42.62
2022-09-15T16:52:44.488Z,42.49
2022-09-15T16:54:46.225Z,42.16
2022-09-15T16:56:48.016Z,41.78
2022-09-15T16:58:49.717Z,41.92
2022-09-15T17:00:51.806Z,42.00
2022-09-15T17:02:53.576Z,41.98
2022-09-15T17:04:55.755Z,42.96
2022-09-15T17:06:57.846Z,42.09
2022-09-15T17:08:59.997Z,41.99
2022-09-15T17:11:02.782Z,41.65
2022-09-15T17:13:04.757Z,41.84
2022-09-15T17:15:19.714Z,41.91
2022-09-15T17:17:25.063Z,41.48
2022-09-15T17:19:26.739Z,41.55
2022-09-15T17:21:28.459Z,41.65
2022-09-15T17:23:38.291Z,42.06
2022-09-15T17:25:41.890Z,42.68
2022-09-15T17:27:43.692Z,41.44
2022-09-15T17:29:45.406Z,41.35
2022-09-15T17:31:47.385Z,41.30
2022-09-15T17:33:50.035Z,41.38
2022-09-15T17:35:51.911Z,42.22
2022-09-15T17:37:54.268Z,41.58
2022-09-15T17:39:58.960Z,41.21
2022-09-15T17:44:02.664Z,41.10
2022-09-15T17:46:04.459Z,42.24
2022-09-15T17:48:06.514Z,43.26
2022-09-15T17:50:08.903Z,43.52
2022-09-15T17:52:11.101Z,43.96
2022-09-15T17:54:12.923Z,44.83
2022-09-15T17:56:14.818Z,45.76
2022-09-15T17:58:16.652Z,45.56
2022-09-15T18:00:18.784Z,46.54
2022-09-15T18:02:20.948Z,46.00
2022-09-15T18:04:22.763Z,45.86
2022-09-15T18:06:24.765Z,46.28
2022-09-15T18:08:27.051Z,46.50
2022-09-15T18:10:29.224Z,46.66
2022-09-15T18:12:31.046Z,46.24
2022-09-15T18:14:32.947Z,46.06
2022-09-15T18:16:34.695Z,46.38
2022-09-15T18:18:36.559Z,46.23
2022-09-15T18:20:40.001Z,46.05
2022-09-15T18:22:41.918Z,46.34
2022-09-15T18:24:43.778Z,46.07
2022-09-15T18:26:45.680Z,46.35
2022-09-15T18:28:47.399Z,46.83
2022-09-15T18:30:49.831Z,46.82
2022-09-15T18:32:51.769Z,46.81
2022-09-15T18:34:53.529Z,47.22
2022-09-15T18:36:55.259Z,47.51
2022-09-15T18:38:57.284Z,47.21
2022-09-15T18:40:59.052Z,47.22
2022-09-15T18:43:00.812Z,47.30
2022-09-15T18:45:02.641Z,47.51
2022-09-15T18:47:04.626Z,47.90
2022-09-15T18:49:06.347Z,47.48
2022-09-15T18:51:08.995Z,47.56
2022-09-15T18:53:10.841Z,47.72
2022-09-15T18:55:17.486Z,47.81
2022-09-15T18:57:19.668Z,48.13
2022-09-15T18:59:21.402Z,47.91
2022-09-15T19:01:23.398Z,47.82
2022-09-15T19:03:28.101Z,48.15
2022-09-15T19:05:31.807Z,47.98
2022-09-15T19:07:33.860Z,47.93
2022-09-15T19:09:35.814Z,47.62
2022-09-15T19:11:37.629Z,47.85
2022-09-15T19:13:39.330Z,48.14
2022-09-15T19:15:41.233Z,48.16
2022-09-15T19:17:43.218Z,48.15
2022-09-15T19:19:45.012Z,48.21
2022-09-15T19:21:46.777Z,48.20
2022-09-15T19:23:49.006Z,47.66
2022-09-15T19:25:50.741Z,48.11
2022-09-15T19:27:52.499Z,47.89
2022-09-15T19:29:54.355Z,48.24
2022-09-15T19:31:56.196Z,48.26
2022-09-15T19:33:57.948Z,48.26
2022-09-15T19:36:17.274Z,48.27
2022-09-15T19:38:24.812Z,48.13
2022-09-15T19:40:26.919Z,48.19
2022-09-15T19:42:28.809Z,48.24
2022-09-15T19:44:30.688Z,48.59
2022-09-15T19:46:32.593Z,48.39
2022-09-15T19:48:38.627Z,48.65
2022-09-15T19:50:43.122Z,48.59
2022-09-15T19:52:44.875Z,48.62
2022-09-15T19:54:46.594Z,48.24
2022-09-15T19:56:48.268Z,48.27
2022-09-15T19:58:50.015Z,48.47
2022-09-15T20:00:55.364Z,48.45
2022-09-15T20:02:57.136Z,48.60
2022-09-15T20:04:58.902Z,48.85
2022-09-15T20:07:00.568Z,48.95
2022-09-15T20:09:02.358Z,48.87
2022-09-15T20:11:05.298Z,49.13
2022-09-15T20:13:07.074Z,48.81
2022-09-15T20:15:09.279Z,48.94
2022-09-15T20:17:11.176Z,48.89
2022-09-15T20:19:12.938Z,49.04
2022-09-15T20:21:26.857Z,48.67
2022-09-15T20:23:37.500Z,48.94
2022-09-15T20:25:39.180Z,49.21
2022-09-15T20:27:40.866Z,48.90
2022-09-15T20:29:42.586Z,48.99
2022-09-15T20:31:44.273Z,48.86
2022-09-15T20:34:14.090Z,49.29
2022-09-15T20:36:23.517Z,49.19
2022-09-15T20:38:25.331Z,49.36
2022-09-15T20:40:27.044Z,49.37
2022-09-15T20:42:28.807Z,49.15
2022-09-15T20:44:30.548Z,48.99
2022-09-15T20:46:32.286Z,49.02
2022-09-15T20:48:34.918Z,49.20
2022-09-15T20:50:36.698Z,48.96
2022-09-15T20:52:38.728Z,49.12
2022-09-15T20:54:40.433Z,48.97
2022-09-15T20:56:42.097Z,49.08
2022-09-15T20:58:43.786Z,48.65
2022-09-15T21:00:45.552Z,49.08
2022-09-15T21:02:51.537Z,48.83
2022-09-15T21:04:53.290Z,48.75
2022-09-15T21:06:54.940Z,48.86
2022-09-15T21:08:57.183Z,49.27
2022-09-15T21:10:58.844Z,49.33
2022-09-15T21:13:00.561Z,48.84
2022-09-15T21:15:02.239Z,49.09
2022-09-15T21:17:04.010Z,48.94
2022-09-15T21:19:05.741Z,49.19
2022-09-15T21:21:08.247Z,49.36
2022-09-15T21:23:10.083Z,49.45
2022-09-15T21:25:11.786Z,49.33
2022-09-15T21:27:13.473Z,49.48
2022-09-15T21:29:15.336Z,49.64
2022-09-15T21:31:21.477Z,49.77
2022-09-15T21:33:23.226Z,49.40
2022-09-15T21:35:24.886Z,50.12
2022-09-15T21:37:26.585Z,49.94
2022-09-15T21:39:28.261Z,49.75
2022-09-15T21:41:30.165Z,49.39
2022-09-15T21:43:32.493Z,49.14
2022-09-15T21:45:34.229Z,49.20
2022-09-15T21:47:35.923Z,49.53
2022-09-15T21:49:37.581Z,49.40
2022-09-15T21:51:39.312Z,49.22
2022-09-15T21:53:41.399Z,49.40
2022-09-15T21:55:43.129Z,48.82
2022-09-15T21:57:44.809Z,49.22
2022-09-15T21:59:46.490Z,48.97
2022-09-15T22:01:48.198Z,49.02
2022-09-15T22:03:54.743Z,49.28
2022-09-15T22:05:56.506Z,49.07
2022-09-15T22:08:02.764Z,49.10
2022-09-15T22:10:06.804Z,49.33
2022-09-15T22:12:08.558Z,49.15
2022-09-15T22:14:10.342Z,49.11
2022-09-15T22:16:19.546Z,49.35
2022-09-15T22:18:21.284Z,49.50
2022-09-15T22:20:22.985Z,49.03
2022-09-15T22:22:24.702Z,49.56
2022-09-15T22:24:26.391Z,49.37
2022-09-15T22:26:29.530Z,49.09
2022-09-15T22:28:31.416Z,49.00
2022-09-15T22:30:33.085Z,49.12
2022-09-15T22:32:34.886Z,49.30
2022-09-15T22:34:36.593Z,49.38
2022-09-15T22:36:38.342Z,49.30
2022-09-15T22:38:40.163Z,49.20
2022-09-15T22:40:41.896Z,49.34
2022-09-15T22:42:43.679Z,48.88
2022-09-15T22:44:45.497Z,49.22
2022-09-15T22:46:47.299Z,49.46
2022-09-15T22:48:49.079Z,49.10
2022-09-15T22:50:50.789Z,49.35
2022-09-15T22:52:52.485Z,49.06
2022-09-15T22:54:54.222Z,49.33
2022-09-15T22:56:56.003Z,49.25
2022-09-15T22:58:57.683Z,49.01
2022-09-15T23:01:06.759Z,48.95
2022-09-15T23:03:08.974Z,48.92
2022-09-15T23:05:10.799Z,49.43
2022-09-15T23:07:12.515Z,49.05
2022-09-15T23:09:14.229Z,49.08
2022-09-15T23:11:15.920Z,48.77
2022-09-15T23:13:17.903Z,49.06
2022-09-15T23:15:19.689Z,49.15
2022-09-15T23:17:21.441Z,48.92
2022-09-15T23:19:23.182Z,48.89
2022-09-15T23:21:25.065Z,48.75
2022-09-15T23:23:27.041Z,49.01
2022-09-15T23:25:28.696Z,49.13
2022-09-15T23:27:30.523Z,48.61
2022-09-15T23:29:32.296Z,48.97
2022-09-15T23:31:33.969Z,48.67
2022-09-15T23:33:35.769Z,48.61
2022-09-15T23:35:37.602Z,48.57
2022-09-15T23:37:39.319Z,48.98
2022-09-15T23:39:41.016Z,48.70
2022-09-15T23:41:42.662Z,48.74
2022-09-15T23:43:44.471Z,48.90
2022-09-15T23:45:46.162Z,49.07
2022-09-15T23:47:47.829Z,48.63
2022-09-15T23:49:49.492Z,48.55
2022-09-15T23:51:51.143Z,48.78
2022-09-15T23:53:52.912Z,48.44
2022-09-15T23:55:54.633Z,48.54
2022-09-15T23:57:56.353Z,48.65
2022-09-15T23:59:58.102Z,48.58
